Time;durP1;ratioP1;P1;durP2;ratioP2;P2;SDS_P1;SDS_P2;PMS_P1;PMS_P2;Temp;Humidity;BMP_temperature;BMP_pressure;BME280_temperature;BME280_humidity;BME280_pressure;Samples;Min_cycle;Max_cycle;Signal;HPM_P1;HPM_P2
2022/03/12 00:00:50;;;;;;;10.25;5.82;;;;;;;;;;5024564;28;20041;-63
2022/03/12 00:03:17;;;;;;;12.85;6.32;;;;;;;;;;5014364;28;20045;-63
2022/03/12 00:05:54;;;;;;;9.60;5.80;;;;;;;;;;5005882;28;20049;-63
2022/03/12 00:08:23;;;;;;;12.10;5.65;;;;;;;;;;5006135;28;20177;-63
2022/03/12 00:10:50;;;;;;;11.85;6.50;;;;;;;;;;5005422;28;20046;-63
2022/03/12 00:13:19;;;;;;;10.47;5.83;;;;;;;;;;5016852;28;20056;-63
2022/03/12 00:15:47;;;;;;;13.55;6.55;;;;;;;;;;5022276;28;20049;-63
2022/03/12 00:18:18;;;;;;;14.18;6.72;;;;;;;;;;4994693;28;20096;-63
2022/03/12 00:20:46;;;;;;;13.30;6.00;;;;;;;;;;5005591;28;20295;-63
2022/03/12 00:23:16;;;;;;;14.15;6.78;;;;;;;;;;5002215;28;20496;-64
2022/03/12 00:25:44;;;;;;;10.27;5.93;;;;;;;;;;5011482;28;20054;-64
2022/03/12 00:28:12;;;;;;;9.68;5.05;;;;;;;;;;5024099;28;20045;-63
2022/03/12 00:30:38;;;;;;;13.55;6.03;;;;;;;;;;5023084;28;20091;-63
2022/03/12 00:33:05;;;;;;;12.50;5.40;;;;;;;;;;5020757;28;20042;-63
2022/03/12 00:35:31;;;;;;;17.77;6.20;;;;;;;;;;5011748;28;20046;-63
2022/03/12 00:37:58;;;;;;;11.00;6.18;;;;;;;;;;5023715;28;20095;-63
2022/03/12 00:40:24;;;;;;;13.45;5.90;;;;;;;;;;5006854;28;20521;-63
2022/03/12 00:42:50;;;;;;;12.00;6.22;;;;;;;;;;5024028;28;20033;-63
2022/03/12 00:45:16;;;;;;;12.07;6.32;;;;;;;;;;5016921;28;20108;-63
2022/03/12 00:47:43;;;;;;;10.07;6.28;;;;;;;;;;5005158;28;20033;-63
2022/03/12 00:50:09;;;;;;;11.45;6.13;;;;;;;;;;5005771;28;20660;-63
2022/03/12 00:52:35;;;;;;;11.05;5.75;;;;;;;;;;4999563;28;20385;-63
2022/03/12 00:55:02;;;;;;;11.30;6.00;;;;;;;;;;5010672;28;20686;-63
2022/03/12 00:57:28;;;;;;;11.90;5.65;;;;;;;;;;5023285;28;20043;-63
2022/03/12 00:59:54;;;;;;;12.40;6.10;;;;;;;;;;5023124;28;20124;-63
2022/03/12 01:02:20;;;;;;;10.63;6.32;;;;;;;;;;5023052;28;20107;-63
2022/03/12 01:04:46;;;;;;;10.85;6.07;;;;;;;;;;5000608;28;20094;-63
2022/03/12 01:07:12;;;;;;;14.30;6.25;;;;;;;;;;5006484;28;20038;-63
2022/03/12 01:09:39;;;;;;;13.18;6.50;;;;;;;;;;5000837;28;20045;-63
2022/03/12 01:12:07;;;;;;;20.92;6.35;;;;;;;;;;5005173;28;20049;-63
2022/03/12 01:14:33;;;;;;;11.50;5.88;;;;;;;;;;5008909;28;20068;-63
2022/03/12 01:16:59;;;;;;;17.52;6.35;;;;;;;;;;5022940;28;20045;-63
2022/03/12 01:19:26;;;;;;;11.68;5.85;;;;;;;;;;5022614;28;21003;-63
2022/03/12 01:21:52;;;;;;;10.35;5.72;;;;;;;;;;5023770;28;20095;-63
2022/03/12 01:24:19;;;;;;;16.10;6.60;;;;;;;;;;5018990;28;20057;-63
2022/03/12 01:26:45;;;;;;;13.20;6.10;;;;;;;;;;5004784;28;20272;-63
2022/03/12 01:29:11;;;;;;;19.48;7.78;;;;;;;;;;5004640;28;20037;-63
2022/03/12 01:31:37;;;;;;;13.25;6.18;;;;;;;;;;5011347;28;20096;-64
2022/03/12 01:34:04;;;;;;;10.68;5.57;;;;;;;;;;4990664;28;20041;-63
2022/03/12 01:36:31;;;;;;;14.25;6.28;;;;;;;;;;5022826;28;20038;-63
2022/03/12 01:38:57;;;;;;;15.02;6.30;;;;;;;;;;5020943;28;20061;-64
2022/03/12 01:41:25;;;;;;;11.55;5.70;;;;;;;;;;5005075;28;20857;-64
2022/03/12 01:43:53;;;;;;;10.60;6.13;;;;;;;;;;5009043;28;20379;-64
2022/03/12 01:46:23;;;;;;;11.18;5.72;;;;;;;;;;5022057;28;20400;-64
2022/03/12 01:48:52;;;;;;;13.70;5.82;;;;;;;;;;5023081;28;20703;-64
2022/03/12 01:51:19;;;;;;;13.07;6.25;;;;;;;;;;5017057;28;20042;-64
2022/03/12 01:53:45;;;;;;;19.23;6.03;;;;;;;;;;5008929;28;20045;-64
2022/03/12 01:56:12;;;;;;;14.40;6.00;;;;;;;;;;5022965;28;20069;-64
2022/03/12 01:58:38;;;;;;;12.75;6.13;;;;;;;;;;5022980;28;20529;-64
2022/03/12 02:01:04;;;;;;;12.90;6.03;;;;;;;;;;5021972;28;20506;-64
2022/03/12 02:03:32;;;;;;;10.38;5.70;;;;;;;;;;5018561;28;20871;-63
2022/03/12 02:05:59;;;;;;;15.10;6.20;;;;;;;;;;5004316;28;20049;-63
2022/03/12 02:08:25;;;;;;;12.95;5.80;;;;;;;;;;5023252;28;20045;-63
2022/03/12 02:10:57;;;;;;;11.57;5.72;;;;;;;;;;5022457;28;20048;-63
2022/03/12 02:13:24;;;;;;;11.10;6.13;;;;;;;;;;5018026;28;20456;-63
2022/03/12 02:15:50;;;;;;;11.68;5.45;;;;;;;;;;5007365;28;20046;-62
2022/03/12 02:18:16;;;;;;;10.15;5.78;;;;;;;;;;5008338;28;20038;-62
2022/03/12 02:20:42;;;;;;;8.88;5.70;;;;;;;;;;5008056;28;20889;-62
2022/03/12 02:23:09;;;;;;;13.32;5.97;;;;;;;;;;5013934;28;20068;-62
2022/03/12 02:25:36;;;;;;;10.40;6.32;;;;;;;;;;5025887;28;20033;-62
2022/03/12 02:28:03;;;;;;;11.27;6.35;;;;;;;;;;5024956;28;20046;-63
2022/03/12 02:30:34;;;;;;;11.55;5.97;;;;;;;;;;5025668;28;20156;-63
2022/03/12 02:33:01;;;;;;;10.85;6.13;;;;;;;;;;5021102;28;20045;-63
2022/03/12 02:35:34;;;;;;;14.90;5.75;;;;;;;;;;5008088;28;20073;-64
2022/03/12 02:38:01;;;;;;;10.75;5.95;;;;;;;;;;5007986;28;20073;-63
2022/03/12 02:40:28;;;;;;;10.52;5.60;;;;;;;;;;5007374;28;20064;-63
2022/03/12 02:42:57;;;;;;;12.10;6.38;;;;;;;;;;5014260;28;20046;-63
2022/03/12 02:45:27;;;;;;;11.57;6.00;;;;;;;;;;5025701;28;20056;-63
2022/03/12 02:47:55;;;;;;;12.00;6.50;;;;;;;;;;5026262;28;20534;-63
2022/03/12 02:50:21;;;;;;;10.77;5.95;;;;;;;;;;5026630;28;20045;-63
2022/03/12 02:52:48;;;;;;;10.63;6.40;;;;;;;;;;5019381;28;20120;-63
2022/03/12 02:55:36;;;;;;;10.45;5.90;;;;;;;;;;5007541;28;20054;-63
2022/03/12 02:58:09;;;;;;;11.95;6.45;;;;;;;;;;5011182;28;20045;-64
2022/03/12 03:00:37;;;;;;;12.60;5.45;;;;;;;;;;5003578;28;20476;-63
2022/03/12 03:03:04;;;;;;;11.00;6.40;;;;;;;;;;5015809;28;20050;-63
2022/03/12 03:05:36;;;;;;;10.63;6.25;;;;;;;;;;5006093;28;20050;-63
2022/03/12 03:08:05;;;;;;;11.23;6.25;;;;;;;;;;5007406;28;20081;-63
2022/03/12 03:10:34;;;;;;;13.13;6.55;;;;;;;;;;5006998;28;20697;-63
2022/03/12 03:13:15;;;;;;;18.55;6.50;;;;;;;;;;5018676;28;20169;-63
2022/03/12 03:15:42;;;;;;;10.82;6.28;;;;;;;;;;5024777;28;20045;-63
2022/03/12 03:18:11;;;;;;;13.85;6.32;;;;;;;;;;5025066;28;20042;-63
2022/03/12 03:20:37;;;;;;;10.10;5.80;;;;;;;;;;5025391;28;20095;-63
2022/03/12 03:23:06;;;;;;;12.75;6.28;;;;;;;;;;5011497;28;20041;-63
2022/03/12 03:25:32;;;;;;;16.63;6.63;;;;;;;;;;5006251;28;20034;-63
2022/03/12 03:27:59;;;;;;;13.38;6.97;;;;;;;;;;5006520;28;20045;-63
2022/03/12 03:30:25;;;;;;;12.52;5.95;;;;;;;;;;5006301;28;20514;-63
2022/03/12 03:32:51;;;;;;;15.77;6.63;;;;;;;;;;5020899;28;20038;-62
2022/03/12 03:35:17;;;;;;;12.50;5.88;;;;;;;;;;5025408;28;20064;-62
2022/03/12 03:37:43;;;;;;;14.57;5.88;;;;;;;;;;5006717;28;20049;-63
2022/03/12 03:40:10;;;;;;;14.13;6.40;;;;;;;;;;5025563;28;20041;-63
2022/03/12 03:42:36;;;;;;;11.32;6.15;;;;;;;;;;5011397;28;20384;-64
2022/03/12 03:45:03;;;;;;;11.90;6.28;;;;;;;;;;4988095;28;20459;-64
2022/03/12 03:47:29;;;;;;;12.63;5.90;;;;;;;;;;5006520;28;20446;-63
2022/03/12 03:49:55;;;;;;;13.05;6.45;;;;;;;;;;5006582;28;20104;-63
2022/03/12 03:52:22;;;;;;;12.07;6.70;;;;;;;;;;5019642;28;20060;-63
2022/03/12 03:54:48;;;;;;;13.18;6.07;;;;;;;;;;5006522;28;20041;-63
2022/03/12 03:57:17;;;;;;;12.82;5.68;;;;;;;;;;5024983;28;20044;-63
2022/03/12 03:59:43;;;;;;;12.55;6.88;;;;;;;;;;5023820;28;20061;-64
2022/03/12 04:02:09;;;;;;;14.00;6.47;;;;;;;;;;5011724;28;20066;-63
2022/03/12 04:04:38;;;;;;;10.02;6.20;;;;;;;;;;5006289;28;20121;-63
2022/03/12 04:07:05;;;;;;;;;;;;;;;;;;5013967;28;20056;-64
2022/03/12 04:09:31;;;;;;;11.95;6.13;;;;;;;;;;5006092;28;19994;-64
2022/03/12 04:11:57;;;;;;;10.38;5.80;;;;;;;;;;5018499;28;20073;-63
2022/03/12 04:14:25;;;;;;;10.85;5.40;;;;;;;;;;5006737;28;20068;-64
2022/03/12 04:16:52;;;;;;;11.45;5.65;;;;;;;;;;5025011;28;20049;-63
2022/03/12 04:19:18;;;;;;;16.02;6.97;;;;;;;;;;5024623;28;20054;-63
2022/03/12 04:21:45;;;;;;;14.85;7.68;;;;;;;;;;5022723;28;20120;-63
2022/03/12 04:24:13;;;;;;;13.38;6.50;;;;;;;;;;5024748;28;20059;-62
2022/03/12 04:26:40;;;;;;;20.17;6.38;;;;;;;;;;5024168;28;20042;-64
2022/03/12 04:29:09;;;;;;;15.18;6.32;;;;;;;;;;5023971;28;20053;-63
2022/03/12 04:31:35;;;;;;;;;;;;;;;;;;4998094;28;20049;-64
2022/03/12 04:34:01;;;;;;;12.48;5.60;;;;;;;;;;5024246;28;20279;-64
2022/03/12 04:36:28;;;;;;;10.63;5.20;;;;;;;;;;5023763;28;20250;-63
2022/03/12 04:38:54;;;;;;;16.88;7.03;;;;;;;;;;5024528;28;20116;-63
2022/03/12 04:41:20;;;;;;;14.57;6.03;;;;;;;;;;5009927;28;20037;-63
2022/03/12 04:43:48;;;;;;;12.75;6.25;;;;;;;;;;5005610;28;20038;-63
2022/03/12 04:46:15;;;;;;;17.58;6.32;;;;;;;;;;5003905;28;20419;-63
2022/03/12 04:48:41;;;;;;;12.13;6.47;;;;;;;;;;5013198;28;20038;-63
2022/03/12 04:51:07;;;;;;;10.75;6.35;;;;;;;;;;5008980;28;20197;-63
2022/03/12 04:53:34;;;;;;;12.43;6.15;;;;;;;;;;5005393;28;20083;-63
2022/03/12 04:56:00;;;;;;;11.90;6.05;;;;;;;;;;5005116;28;20403;-62
2022/03/12 04:58:28;;;;;;;13.38;6.80;;;;;;;;;;5005212;28;20125;-63
2022/03/12 05:00:54;;;;;;;9.85;6.40;;;;;;;;;;5018541;28;20115;-62
2022/03/12 05:03:22;;;;;;;12.65;5.93;;;;;;;;;;5006110;28;20502;-63
2022/03/12 05:05:49;;;;;;;16.05;6.72;;;;;;;;;;5021630;28;20044;-63
2022/03/12 05:08:17;;;;;;;11.88;5.97;;;;;;;;;;5023654;28;20395;-62
2022/03/12 05:10:44;;;;;;;10.97;6.27;;;;;;;;;;5008738;28;20672;-62
2022/03/12 05:13:12;;;;;;;12.23;6.55;;;;;;;;;;5013797;28;20300;-62
2022/03/12 05:15:38;;;;;;;15.45;6.93;;;;;;;;;;5022658;28;20063;-63
2022/03/12 05:18:06;;;;;;;13.23;6.93;;;;;;;;;;5023622;28;20037;-63
2022/03/12 05:20:34;;;;;;;14.15;6.57;;;;;;;;;;5008478;28;20050;-63
2022/03/12 05:23:00;;;;;;;13.15;6.47;;;;;;;;;;5004692;28;20037;-63
2022/03/12 05:25:27;;;;;;;10.75;6.43;;;;;;;;;;4987209;28;20038;-63
2022/03/12 05:27:54;;;;;;;14.35;5.97;;;;;;;;;;5005128;28;20037;-62
2022/03/12 05:30:21;;;;;;;13.68;6.22;;;;;;;;;;5018662;28;20049;-62
2022/03/12 05:32:48;;;;;;;18.58;7.13;;;;;;;;;;5005767;28;20117;-62
2022/03/12 05:35:17;;;;;;;11.50;6.97;;;;;;;;;;5004872;28;20038;-63
2022/03/12 05:37:45;;;;;;;12.15;6.68;;;;;;;;;;5004847;28;20056;-63
2022/03/12 05:40:12;;;;;;;12.40;6.65;;;;;;;;;;5022793;28;20042;-62
2022/03/12 05:42:38;;;;;;;13.50;6.55;;;;;;;;;;4988141;28;20045;-63
2022/03/12 05:45:09;;;;;;;13.40;7.05;;;;;;;;;;5003525;28;20077;-63
2022/03/12 05:47:37;;;;;;;10.68;6.40;;;;;;;;;;4986994;28;20042;-62
2022/03/12 05:50:04;;;;;;;12.93;6.40;;;;;;;;;;5006551;28;20038;-62
2022/03/12 05:52:30;;;;;;;14.63;6.28;;;;;;;;;;5026719;28;20734;-63
2022/03/12 05:54:56;;;;;;;13.50;6.45;;;;;;;;;;5026874;28;20507;-62
2022/03/12 05:57:22;;;;;;;11.77;6.05;;;;;;;;;;5027474;28;20037;-62
2022/03/12 05:59:49;;;;;;;12.50;6.78;;;;;;;;;;5026202;28;20451;-62
2022/03/12 06:02:16;;;;;;;17.42;7.28;;;;;;;;;;5007850;28;20597;-63
2022/03/12 06:04:43;;;;;;;10.85;6.15;;;;;;;;;;5026490;28;20512;-63
2022/03/12 06:07:09;;;;;;;13.15;7.00;;;;;;;;;;5027363;28;20052;-63
2022/03/12 06:09:36;;;;;;;13.35;6.47;;;;;;;;;;5024105;28;20049;-62
2022/03/12 06:12:02;;;;;;;10.15;6.03;;;;;;;;;;5025050;28;20107;-63
2022/03/12 06:14:30;;;;;;;12.98;6.55;;;;;;;;;;5025461;28;20052;-62
2022/03/12 06:16:56;;;;;;;12.85;6.25;;;;;;;;;;5025692;28;20037;-62
2022/03/12 06:19:23;;;;;;;11.85;6.53;;;;;;;;;;5013670;28;20042;-63
2022/03/12 06:21:49;;;;;;;11.88;6.72;;;;;;;;;;5023774;28;20044;-63
2022/03/12 06:24:15;;;;;;;14.23;6.68;;;;;;;;;;5009407;28;20100;-63
2022/03/12 06:26:43;;;;;;;15.38;6.22;;;;;;;;;;5009533;28;20045;-62
2022/03/12 06:29:12;;;;;;;15.77;6.93;;;;;;;;;;5006316;28;20042;-63
2022/03/12 06:31:39;;;;;;;12.70;6.43;;;;;;;;;;5004754;28;20124;-63
2022/03/12 06:34:06;;;;;;;11.77;6.95;;;;;;;;;;5007375;28;20423;-62
2022/03/12 06:36:34;;;;;;;12.60;6.95;;;;;;;;;;5008503;28;20115;-63
2022/03/12 06:39:01;;;;;;;13.10;6.15;;;;;;;;;;5007279;28;20069;-63
2022/03/12 06:41:28;;;;;;;18.02;6.95;;;;;;;;;;5009682;28;20042;-62
2022/03/12 06:43:55;;;;;;;12.02;6.35;;;;;;;;;;5006898;28;20045;-63
2022/03/12 06:46:22;;;;;;;13.63;6.50;;;;;;;;;;5011541;28;20463;-64
2022/03/12 06:48:48;;;;;;;11.20;6.28;;;;;;;;;;5007100;28;20111;-63
2022/03/12 06:51:14;;;;;;;13.57;6.18;;;;;;;;;;5006713;28;20415;-63
2022/03/12 06:53:40;;;;;;;13.02;6.25;;;;;;;;;;5007133;28;20121;-62
2022/03/12 06:56:07;;;;;;;14.85;7.05;;;;;;;;;;5008043;28;20488;-62
2022/03/12 06:58:34;;;;;;;11.90;6.15;;;;;;;;;;5007192;28;20037;-62
2022/03/12 07:01:00;;;;;;;12.27;6.10;;;;;;;;;;5015147;28;20129;-62
2022/03/12 07:03:27;;;;;;;15.00;6.75;;;;;;;;;;4993582;28;20372;-62
2022/03/12 07:05:53;;;;;;;14.05;7.43;;;;;;;;;;4969552;28;20046;-62
2022/03/12 07:08:19;;;;;;;13.35;6.70;;;;;;;;;;4994641;28;20405;-62
2022/03/12 07:10:46;;;;;;;12.15;6.60;;;;;;;;;;4987171;28;20125;-62
2022/03/12 07:13:13;;;;;;;20.73;6.80;;;;;;;;;;4986458;28;20107;-63
2022/03/12 07:15:39;;;;;;;13.27;6.72;;;;;;;;;;4989940;28;20108;-62
2022/03/12 07:18:05;;;;;;;20.70;6.78;;;;;;;;;;4986752;28;20042;-62
2022/03/12 07:20:32;;;;;;;14.32;6.70;;;;;;;;;;4990908;28;20607;-62
2022/03/12 07:22:58;;;;;;;15.38;6.50;;;;;;;;;;4986246;28;20056;-61
2022/03/12 07:25:25;;;;;;;10.77;6.30;;;;;;;;;;4988542;28;20129;-62
2022/03/12 07:27:53;;;;;;;11.85;6.47;;;;;;;;;;4996758;28;20736;-62
2022/03/12 07:30:21;;;;;;;14.85;6.53;;;;;;;;;;5003290;28;20056;-61
2022/03/12 07:32:47;;;;;;;15.05;7.18;;;;;;;;;;4999481;28;20038;-62
2022/03/12 07:35:15;;;;;;;14.63;7.07;;;;;;;;;;5004359;28;20049;-62
2022/03/12 07:37:42;;;;;;;13.77;6.50;;;;;;;;;;5006199;28;20045;-62
2022/03/12 07:40:09;;;;;;;14.45;7.57;;;;;;;;;;5006166;28;20053;-62
2022/03/12 07:42:35;;;;;;;15.30;7.28;;;;;;;;;;5006866;28;20042;-62
2022/03/12 07:45:02;;;;;;;11.75;6.72;;;;;;;;;;5015237;28;20046;-62
2022/03/12 07:47:28;;;;;;;16.33;7.40;;;;;;;;;;5024622;28;20131;-63
2022/03/12 07:49:54;;;;;;;13.68;7.00;;;;;;;;;;5007998;28;20045;-63
2022/03/12 07:52:21;;;;;;;17.30;8.05;;;;;;;;;;5002644;28;20060;-62
2022/03/12 07:54:47;;;;;;;12.30;6.53;;;;;;;;;;5015253;28;20113;-63
2022/03/12 07:57:13;;;;;;;19.55;7.22;;;;;;;;;;5023624;28;20049;-63
2022/03/12 07:59:39;;;;;;;14.82;6.68;;;;;;;;;;5010562;28;20184;-62
2022/03/12 08:02:07;;;;;;;17.52;6.93;;;;;;;;;;5006116;28;20033;-62
2022/03/12 08:04:33;;;;;;;15.82;7.05;;;;;;;;;;5014433;28;20029;-62
2022/03/12 08:07:02;;;;;;;14.50;7.30;;;;;;;;;;5024936;28;20058;-62
2022/03/12 08:09:29;;;;;;;13.48;7.32;;;;;;;;;;5012364;28;20046;-62
2022/03/12 08:11:57;;;;;;;15.77;7.32;;;;;;;;;;5006727;28;20081;-62
2022/03/12 08:14:23;;;;;;;12.57;6.95;;;;;;;;;;5005340;28;20452;-62
2022/03/12 08:16:51;;;;;;;15.00;7.78;;;;;;;;;;5005831;28;20111;-62
2022/03/12 08:19:17;;;;;;;16.33;7.90;;;;;;;;;;5012662;28;20402;-62
2022/03/12 08:21:44;;;;;;;16.50;9.07;;;;;;;;;;5024031;28;20044;-62
2022/03/12 08:24:11;;;;;;;19.83;9.02;;;;;;;;;;5024381;28;20124;-62
2022/03/12 08:26:41;;;;;;;18.08;9.38;;;;;;;;;;5024355;28;20099;-62
2022/03/12 08:29:10;;;;;;;22.33;10.00;;;;;;;;;;5011999;28;20108;-62
2022/03/12 08:31:36;;;;;;;;;;;;;;;;;;5024007;28;20096;-62
2022/03/12 08:34:02;;;;;;;20.15;8.77;;;;;;;;;;5014224;28;19921;-62
2022/03/12 08:36:28;;;;;;;18.40;9.00;;;;;;;;;;5004991;28;20412;-62
2022/03/12 08:38:54;;;;;;;21.83;10.68;;;;;;;;;;5016416;28;20041;-61
2022/03/12 08:41:22;;;;;;;20.65;9.13;;;;;;;;;;5024495;28;20079;-62
2022/03/12 08:43:49;;;;;;;15.40;8.63;;;;;;;;;;5022995;28;20117;-62
2022/03/12 08:46:15;;;;;;;18.75;8.05;;;;;;;;;;5023586;28;20479;-62
2022/03/12 08:48:41;;;;;;;15.18;7.82;;;;;;;;;;5011529;28;20100;-61
2022/03/12 08:51:08;;;;;;;15.57;7.70;;;;;;;;;;5004158;28;20496;-62
2022/03/12 08:53:35;;;;;;;18.33;8.40;;;;;;;;;;5005965;28;20439;-62
2022/03/12 08:56:02;;;;;;;14.02;7.22;;;;;;;;;;5005716;28;20045;-62
2022/03/12 08:58:29;;;;;;;15.35;8.25;;;;;;;;;;4998436;28;20073;-62
2022/03/12 09:00:56;;;;;;;14.38;7.55;;;;;;;;;;5001380;28;20399;-62
2022/03/12 09:03:22;;;;;;;18.65;7.82;;;;;;;;;;5005205;28;20381;-62
2022/03/12 09:05:49;;;;;;;20.17;7.70;;;;;;;;;;5004383;28;20496;-62
2022/03/12 09:08:17;;;;;;;17.60;8.30;;;;;;;;;;5009961;28;20127;-62
2022/03/12 09:10:44;;;;;;;15.65;8.40;;;;;;;;;;4983790;28;20053;-62
2022/03/12 09:13:13;;;;;;;12.65;7.75;;;;;;;;;;5004078;28;20104;-62
2022/03/12 09:15:39;;;;;;;16.95;8.55;;;;;;;;;;5003820;28;20124;-62
2022/03/12 09:18:06;;;;;;;16.02;8.32;;;;;;;;;;5015051;28;20050;-61
2022/03/12 09:20:42;;;;;;;15.18;9.32;;;;;;;;;;5023279;28;20117;-62
2022/03/12 09:23:08;;;;;;;16.67;8.30;;;;;;;;;;5022635;28;20494;-61
2022/03/12 09:25:34;;;;;;;14.73;8.50;;;;;;;;;;5021719;28;20399;-62
2022/03/12 09:28:02;;;;;;;15.90;7.68;;;;;;;;;;5010576;28;20038;-62
2022/03/12 09:30:28;;;;;;;17.00;8.55;;;;;;;;;;4985341;28;20091;-61
2022/03/12 09:32:54;;;;;;;17.73;8.40;;;;;;;;;;5004900;28;20038;-61
2022/03/12 09:35:21;;;;;;;14.18;8.20;;;;;;;;;;5004662;28;20251;-61
2022/03/12 09:37:48;;;;;;;15.38;8.02;;;;;;;;;;5015968;28;20048;-60
2022/03/12 09:40:15;;;;;;;16.10;8.15;;;;;;;;;;5022782;28;20126;-60
2022/03/12 09:42:42;;;;;;;16.40;8.35;;;;;;;;;;5022175;28;20037;-61
2022/03/12 09:45:09;;;;;;;16.35;7.95;;;;;;;;;;5020462;28;20091;-61
2022/03/12 09:47:35;;;;;;;19.17;8.95;;;;;;;;;;5008104;28;20510;-61
2022/03/12 09:50:02;;;;;;;16.63;8.43;;;;;;;;;;5004028;28;20076;-61
2022/03/12 09:52:29;;;;;;;17.55;9.02;;;;;;;;;;5004805;28;20451;-61
2022/03/12 09:54:55;;;;;;;16.33;8.55;;;;;;;;;;5022826;28;20048;-61
2022/03/12 09:57:22;;;;;;;18.10;8.55;;;;;;;;;;5010652;28;20045;-61
2022/03/12 09:59:48;;;;;;;16.77;8.88;;;;;;;;;;5002943;28;20699;-60
2022/03/12 10:02:14;;;;;;;17.77;9.13;;;;;;;;;;5010006;28;20053;-61
2022/03/12 10:04:41;;;;;;;19.60;8.75;;;;;;;;;;5005850;28;20049;-61
2022/03/12 10:07:09;;;;;;;16.67;9.10;;;;;;;;;;5015508;28;20421;-61
2022/03/12 10:09:36;;;;;;;16.73;8.10;;;;;;;;;;5022820;28;20041;-61
2022/03/12 10:12:02;;;;;;;16.23;8.05;;;;;;;;;;5022433;28;20480;-61
2022/03/12 10:14:30;;;;;;;23.33;9.10;;;;;;;;;;5002572;28;20042;-61
2022/03/12 10:16:56;;;;;;;14.68;8.38;;;;;;;;;;4989808;28;20597;-62
2022/03/12 10:19:22;;;;;;;14.68;8.32;;;;;;;;;;4988565;28;20046;-61
2022/03/12 10:21:52;;;;;;;23.00;8.88;;;;;;;;;;4986905;28;20415;-62
2022/03/12 10:24:18;;;;;;;14.30;8.15;;;;;;;;;;4976011;28;20497;-61
2022/03/12 10:26:45;;;;;;;18.10;7.95;;;;;;;;;;4983849;28;20042;-61
2022/03/12 10:29:11;;;;;;;15.70;8.57;;;;;;;;;;4986752;28;20050;-61
2022/03/12 10:31:38;;;;;;;17.38;7.72;;;;;;;;;;4986651;28;20126;-61
2022/03/12 10:34:23;;;;;;;15.48;7.93;;;;;;;;;;4984335;28;20045;-62
2022/03/12 10:36:50;;;;;;;11.45;7.05;;;;;;;;;;4988272;28;20097;-62
2022/03/12 10:39:17;;;;;;;14.88;7.03;;;;;;;;;;4992361;28;20054;-61
2022/03/12 10:41:43;;;;;;;16.10;6.90;;;;;;;;;;4979852;28;20049;-61
2022/03/12 10:44:10;;;;;;;13.95;6.70;;;;;;;;;;5000494;28;20046;-61
2022/03/12 10:46:40;;;;;;;16.05;7.22;;;;;;;;;;4999327;28;20551;-62
2022/03/12 10:49:07;;;;;;;12.75;6.18;;;;;;;;;;4993360;28;20113;-61
2022/03/12 10:51:35;;;;;;;16.90;7.57;;;;;;;;;;4994824;28;20490;-62
2022/03/12 10:54:04;;;;;;;19.30;6.78;;;;;;;;;;4987708;28;20074;-61
2022/03/12 10:56:30;;;;;;;;;;;;;;;;;;4990222;28;20078;-62
2022/03/12 10:58:58;;;;;;;13.75;6.95;;;;;;;;;;4987877;28;19925;-61
2022/03/12 11:01:25;;;;;;;18.13;7.35;;;;;;;;;;4987501;28;20078;-62
2022/03/12 11:03:51;;;;;;;16.13;6.82;;;;;;;;;;4986756;28;20042;-61
2022/03/12 11:06:23;;;;;;;11.75;6.13;;;;;;;;;;4986512;28;20046;-61
2022/03/12 11:08:50;;;;;;;12.50;6.22;;;;;;;;;;4996689;28;20045;-61
2022/03/12 11:11:16;;;;;;;14.85;6.68;;;;;;;;;;5006552;28;20132;-61
2022/03/12 11:13:44;;;;;;;12.93;6.20;;;;;;;;;;5006375;28;20042;-61
2022/03/12 11:16:12;;;;;;;;;;;;;;;;;;5008466;28;20125;-61
2022/03/12 11:18:39;;;;;;;15.77;6.45;;;;;;;;;;5006557;28;19928;-61
2022/03/12 11:21:05;;;;;;;12.32;5.82;;;;;;;;;;5014030;28;20120;-61
2022/03/12 11:23:32;;;;;;;9.75;6.32;;;;;;;;;;5023648;28;20044;-62
2022/03/12 11:26:05;;;;;;;12.95;6.45;;;;;;;;;;5016908;28;20373;-61
2022/03/12 11:28:32;;;;;;;12.70;6.10;;;;;;;;;;5005741;28;20050;-61
2022/03/12 11:30:58;;;;;;;13.95;7.15;;;;;;;;;;5002704;28;20113;-61
2022/03/12 11:33:25;;;;;;;12.60;6.70;;;;;;;;;;5006875;28;20048;-61
2022/03/12 11:35:57;;;;;;;10.43;6.15;;;;;;;;;;5006609;28;20096;-61
2022/03/12 11:38:24;;;;;;;10.38;6.15;;;;;;;;;;5015148;28;20107;-61
2022/03/12 11:41:16;;;;;;;17.08;5.85;;;;;;;;;;5024447;28;20049;-61
2022/03/12 11:43:42;;;;;;;11.93;6.50;;;;;;;;;;5022508;28;20711;-61
2022/03/12 11:46:11;;;;;;;15.07;5.97;;;;;;;;;;5025087;28;20125;-61
2022/03/12 11:48:38;;;;;;;10.48;5.72;;;;;;;;;;5005095;28;20140;-62
2022/03/12 11:51:16;;;;;;;12.05;6.25;;;;;;;;;;5023261;28;20502;-62
2022/03/12 11:53:45;;;;;;;15.50;6.45;;;;;;;;;;5023523;28;20041;-61
2022/03/12 11:56:12;;;;;;;18.33;6.70;;;;;;;;;;5024736;28;20132;-61
2022/03/12 11:58:39;;;;;;;14.15;6.95;;;;;;;;;;5023957;28;20045;-61
2022/03/12 12:01:05;;;;;;;14.25;6.65;;;;;;;;;;5022858;28;20084;-61
2022/03/12 12:03:32;;;;;;;12.10;7.25;;;;;;;;;;5023709;28;20042;-61
2022/03/12 12:05:59;;;;;;;11.43;7.55;;;;;;;;;;5024053;28;20467;-62
2022/03/12 12:08:26;;;;;;;12.48;6.95;;;;;;;;;;5024651;28;20092;-61
2022/03/12 12:10:54;;;;;;;15.18;7.25;;;;;;;;;;5023853;28;20053;-61
2022/03/12 12:13:21;;;;;;;12.25;6.85;;;;;;;;;;5022294;28;20561;-61
2022/03/12 12:15:48;;;;;;;15.07;7.72;;;;;;;;;;5020319;28;20046;-62
2022/03/12 12:18:14;;;;;;;14.50;7.10;;;;;;;;;;5013146;28;20103;-61
2022/03/12 12:20:41;;;;;;;14.27;6.65;;;;;;;;;;5024219;28;20141;-62
2022/03/12 12:23:13;;;;;;;12.88;7.40;;;;;;;;;;5022502;28;20678;-62
2022/03/12 12:25:40;;;;;;;11.10;6.35;;;;;;;;;;5023638;28;20124;-62
2022/03/12 12:28:14;;;;;;;15.07;6.47;;;;;;;;;;5022307;28;20083;-61
2022/03/12 12:30:43;;;;;;;12.63;6.97;;;;;;;;;;5023867;28;20491;-61
2022/03/12 12:33:15;;;;;;;16.75;6.95;;;;;;;;;;5024270;28;20049;-62
2022/03/12 12:35:42;;;;;;;12.98;6.80;;;;;;;;;;5023081;28;20562;-61
2022/03/12 12:38:09;;;;;;;10.50;6.47;;;;;;;;;;5022877;28;20415;-61
2022/03/12 12:40:42;;;;;;;14.85;6.93;;;;;;;;;;5023500;28;20056;-61
2022/03/12 12:43:11;;;;;;;11.23;5.63;;;;;;;;;;5023520;28;20045;-61
2022/03/12 12:45:46;;;;;;;12.82;6.80;;;;;;;;;;5022952;28;20055;-61
2022/03/12 12:48:14;;;;;;;13.68;6.78;;;;;;;;;;5022732;28;20518;-62
2022/03/12 12:50:42;;;;;;;14.07;6.68;;;;;;;;;;5022782;28;20410;-62
2022/03/12 12:53:12;;;;;;;15.50;7.00;;;;;;;;;;5023643;28;20038;-61
2022/03/12 12:55:39;;;;;;;17.10;7.32;;;;;;;;;;5023080;28;20124;-61
2022/03/12 12:58:06;;;;;;;14.40;6.53;;;;;;;;;;4986775;28;20504;-61
2022/03/12 13:00:33;;;;;;;10.32;5.70;;;;;;;;;;5005920;28;20042;-62
2022/03/12 13:03:00;;;;;;;12.65;6.18;;;;;;;;;;5002761;28;20098;-62
2022/03/12 13:05:45;;;;;;;11.85;6.65;;;;;;;;;;5003693;28;20080;-62
2022/03/12 13:08:12;;;;;;;13.00;5.55;;;;;;;;;;5003516;28;20121;-62
2022/03/12 13:10:39;;;;;;;12.53;5.90;;;;;;;;;;5006688;28;20053;-62
2022/03/12 13:13:18;;;;;;;11.40;5.78;;;;;;;;;;5005412;28;20050;-62
2022/03/12 13:15:47;;;;;;;21.98;5.68;;;;;;;;;;4992255;28;20656;-61
2022/03/12 13:18:17;;;;;;;16.85;6.30;;;;;;;;;;5005219;28;20073;-62
2022/03/12 13:20:45;;;;;;;11.27;5.97;;;;;;;;;;5011022;28;20395;-62
2022/03/12 13:23:12;;;;;;;8.88;5.07;;;;;;;;;;5005350;28;20041;-62
2022/03/12 13:25:53;;;;;;;12.18;5.00;;;;;;;;;;5005164;28;20042;-62
2022/03/12 13:28:40;;;;;;;9.10;5.00;;;;;;;;;;5006627;28;20042;-62
2022/03/12 13:31:16;;;;;;;11.10;5.32;;;;;;;;;;4993138;28;20046;-62
2022/03/12 13:33:42;;;;;;;11.77;4.85;;;;;;;;;;4991886;28;20085;-61
2022/03/12 13:36:20;;;;;;;10.60;4.60;;;;;;;;;;5005392;28;20105;-61
2022/03/12 13:38:46;;;;;;;12.02;4.93;;;;;;;;;;5001414;28;20046;-62
2022/03/12 13:41:14;;;;;;;7.72;4.75;;;;;;;;;;4993541;28;20378;-62
2022/03/12 13:43:41;;;;;;;10.75;4.47;;;;;;;;;;5003052;28;20784;-62
2022/03/12 13:46:07;;;;;;;13.35;5.18;;;;;;;;;;5002558;28;20050;-62
2022/03/12 13:48:34;;;;;;;10.60;5.55;;;;;;;;;;5004342;28;20053;-60
2022/03/12 13:51:00;;;;;;;10.68;5.88;;;;;;;;;;5006023;28;20038;-60
2022/03/12 13:53:28;;;;;;;9.73;5.47;;;;;;;;;;4993724;28;20101;-61
2022/03/12 13:56:05;;;;;;;12.50;5.35;;;;;;;;;;4979644;28;20558;-61
2022/03/12 13:58:31;;;;;;;11.48;4.65;;;;;;;;;;5003669;28;20057;-61
2022/03/12 14:00:59;;;;;;;8.77;4.90;;;;;;;;;;5004145;28;20762;-61
2022/03/12 14:03:29;;;;;;;10.10;5.55;;;;;;;;;;4996777;28;20042;-62
2022/03/12 14:05:57;;;;;;;10.23;5.00;;;;;;;;;;4983767;28;20458;-61
2022/03/12 14:08:28;;;;;;;11.63;5.28;;;;;;;;;;4985065;28;20039;-61
2022/03/12 14:10:55;;;;;;;9.90;5.75;;;;;;;;;;4986231;28;20047;-62
2022/03/12 14:13:21;;;;;;;9.45;5.30;;;;;;;;;;5004385;28;20054;-61
2022/03/12 14:15:49;;;;;;;14.30;6.00;;;;;;;;;;5007169;28;20072;-61
2022/03/12 14:18:25;;;;;;;11.55;5.10;;;;;;;;;;5004722;28;20096;-61
2022/03/12 14:20:52;;;;;;;10.50;5.72;;;;;;;;;;5008216;28;20053;-61
2022/03/12 14:23:20;;;;;;;9.73;5.13;;;;;;;;;;5008120;28;20056;-61
2022/03/12 14:25:48;;;;;;;14.00;5.15;;;;;;;;;;5007604;28;20137;-61
2022/03/12 14:28:14;;;;;;;8.88;5.00;;;;;;;;;;5007229;28;20571;-61
2022/03/12 14:30:41;;;;;;;11.02;4.72;;;;;;;;;;5007004;28;20049;-61
2022/03/12 14:33:07;;;;;;;12.70;6.00;;;;;;;;;;5007784;28;20038;-61